Hafnia Mikala — 9HA4395 — position and weather

sailwx.info

Track history (hours):
 
Tides and Currents Weather Stations Pressure Air Temp Water Temp Dewpoint Dewpoint Depression Visibility Wind Speed Wind Dir Waves Ship Positions

Hafnia Mikala

Last reported at 2018-Jun-25 00:26 UTC. Time now 2018-Jun-25 02:00 UTC.
Position N 37°19' E 004°17'.

Length 183 m; draft 11.4 m.

Type: Tanker. MMSI: 249836000.

Date/timePositionNaut miles runAvg speedWind from/ knotsBaromVisibWave heightAir tempDewpointWater temp
2018-Jun-25 00:26N 37°19' E 004°17'2412.6
2018-Jun-24 22:29N 37°16' E 003°47'712.1
2018-Jun-24 21:54N 37°16' E 003°38'512.0
2018-Jun-24 21:30N 37°15' E 003°32'612.1
2018-Jun-24 21:00N 37°14' E 003°24'612.1
2018-Jun-24 20:30N 37°13' E 003°17'612.2
2018-Jun-24 20:00N 37°12' E 003°09'612.1
2018-Jun-24 19:30N 37°11' E 003°02'612.6
2018-Jun-24 19:00N 37°09' E 002°54'612.9
2018-Jun-24 18:30N 37°07' E 002°47'612.9
2018-Jun-24 18:00N 37°06' E 002°39'612.8
2018-Jun-24 17:30N 37°05' E 002°31'612.9
2018-Jun-24 17:00N 37°04' E 002°23'613.0
2018-Jun-24 16:30N 37°03' E 002°15'713.1
2018-Jun-24 16:00N 37°02' E 002°07'713.4
2018-Jun-24 15:30N 37°00' E 001°59'713.6
2018-Jun-24 15:00N 36°59' E 001°50'713.7
2018-Jun-24 14:29N 36°57' E 001°41'613.5
2018-Jun-24 14:00N 36°56' E 001°34'1613.1
2018-Jun-24 12:48N 36°52' E 001°15'713.1
2018-Jun-24 12:18N 36°50' E 001°06'7113.1
2018-Jun-24 06:52N 36°29' W 000°18'1913.5
2018-Jun-24 05:29N 36°23' W 000°40'3711.0
2018-Jun-24 02:05N 36°13' W 001°25'113.3
2018-Jun-24 01:59N 36°13' W 001°27'913.4
2018-Jun-24 01:18N 36°13' W 001°38'613.6
2018-Jun-24 00:51N 36°12' W 001°46'35413.6
2018-Jun-22 22:56N 36°17' W 009°04'713.5
2018-Jun-22 22:23N 36°18' W 009°13'513.7
2018-Jun-22 21:59N 36°19' W 009°20'189 8.9
2018-Jun-22 00:42N 38°56' W 011°34'313.4
2018-Jun-22 00:29N 38°58' W 011°33'713.4
2018-Jun-21 23:57N 39°06' W 011°31'613.1
2018-Jun-21 23:30N 39°11' W 011°29'52112.4
2018-Jun-20 05:18N 46°11' W 004°28'713.5
2018-Jun-20 04:49N 46°15' W 004°20'1013.0
2018-Jun-20 04:02N 46°20' W 004°08'213.0
2018-Jun-20 03:53N 46°21' W 004°06'613.3
2018-Jun-20 03:29N 46°24' W 003°59'913.0
2018-Jun-20 02:47N 46°29' W 003°48'613.3
2018-Jun-20 02:21N 46°33' W 003°41'513.6
2018-Jun-20 02:00N 46°35' W 003°36'1113.5
2018-Jun-20 01:11N 46°41' W 003°23'413.8
2018-Jun-20 00:54N 46°44' W 003°18'513.8
2018-Jun-20 00:30N 46°47' W 003°11'713.8
2018-Jun-19 23:59N 46°50' W 003°02'714.0
2018-Jun-19 23:29N 46°54' W 002°54'713.5
2018-Jun-19 23:00N 46°58' W 002°46'713.1
2018-Jun-19 22:30N 47°01' W 002°38'612.1
2018-Jun-19 22:00N 47°04' W 002°30'5 9.8
2018-Jun-19 21:30N 47°06' W 002°23'5 9.6
2018-Jun-19 21:00N 47°10' W 002°19'611.7
2018-Jun-19 20:30N 47°15' W 002°14'5 9.8
2018-Jun-19 20:00N 47°18' W 002°09'2 3.4
2018-Jun-19 19:19N 47°18' W 002°05'0 0.0
2018-Jun-19 18:52N 47°18' W 002°05'0 0.0
2018-Jun-19 18:19N 47°18' W 002°05'0 0.0
2018-Jun-19 17:58N 47°18' W 002°05'0 0.0
2018-Jun-19 16:22N 47°18' W 002°05'0 0.0
2018-Jun-19 15:55N 47°18' W 002°05'0 0.0
2018-Jun-19 14:25N 47°18' W 002°05'0 0.0
2018-Jun-19 12:55N 47°18' W 002°05'0 0.0
2018-Jun-19 12:28N 47°18' W 002°05'0 0.0
2018-Jun-19 11:55N 47°18' W 002°05'0 0.0
2018-Jun-19 11:25N 47°18' W 002°05'0 0.0
2018-Jun-19 10:58N 47°18' W 002°05'0 0.0
2018-Jun-19 10:28N 47°18' W 002°05'0 0.0
2018-Jun-19 09:55N 47°18' W 002°05'0 0.0
2018-Jun-19 09:16N 47°18' W 002°05'0 0.0
2018-Jun-19 08:13N 47°18' W 002°05'0 0.0
2018-Jun-19 08:00N 47°18' W 002°05'0 0.0
2018-Jun-19 07:24N 47°18' W 002°05'0 0.0
2018-Jun-19 06:51N 47°18' W 002°05'0 0.0
2018-Jun-19 06:24N 47°18' W 002°05'0 0.0
2018-Jun-19 06:00N 47°18' W 002°05'0 0.0
2018-Jun-19 05:30N 47°18' W 002°05'0 0.0
2018-Jun-19 05:00N 47°18' W 002°05'0 0.0
2018-Jun-19 04:24N 47°18' W 002°05'0 0.0
2018-Jun-19 04:00N 47°18' W 002°05'0 0.0
2018-Jun-19 03:30N 47°18' W 002°05'0 0.0
2018-Jun-19 03:00N 47°18' W 002°05'0 0.0
2018-Jun-19 02:30N 47°18' W 002°05'0 0.0
2018-Jun-19 01:48N 47°18' W 002°05'0 0.0
2018-Jun-19 01:30N 47°18' W 002°05'0 0.0
2018-Jun-19 01:00N 47°18' W 002°05'0 0.0
2018-Jun-18 23:21N 47°18' W 002°05'0 0.0
2018-Jun-18 23:00N 47°18' W 002°05'0 0.0
2018-Jun-18 22:30N 47°18' W 002°05'0 0.0
2018-Jun-18 21:57N 47°18' W 002°05'0 0.0
2018-Jun-18 21:30N 47°18' W 002°05'0 0.0
2018-Jun-18 21:00N 47°18' W 002°05'0 0.0
2018-Jun-18 20:30N 47°18' W 002°05'0 0.0
2018-Jun-18 20:00N 47°18' W 002°05'0 0.0
2018-Jun-18 19:24N 47°18' W 002°05'0 0.0
2018-Jun-18 18:54N 47°18' W 002°05'0 0.0
2018-Jun-18 18:30N 47°18' W 002°05'0 0.0
2018-Jun-18 18:00N 47°18' W 002°05'0 0.0
2018-Jun-18 17:30N 47°18' W 002°05'0 0.0
2018-Jun-18 17:00N 47°18' W 002°05'0 0.0
2018-Jun-18 16:30N 47°18' W 002°05'0 0.0
2018-Jun-18 16:00N 47°18' W 002°05'0 0.0
2018-Jun-18 15:15N 47°18' W 002°05'0 0.0
2018-Jun-18 15:00N 47°18' W 002°05'0 0.0
2018-Jun-18 14:24N 47°18' W 002°05'0 0.0
2018-Jun-18 13:30N 47°18' W 002°05'0 0.0
2018-Jun-18 12:54N 47°18' W 002°05'0 0.0
2018-Jun-18 12:30N 47°18' W 002°05'0 0.0
2018-Jun-18 12:00N 47°18' W 002°05'0 0.0
2018-Jun-18 11:15N 47°18' W 002°05'0 0.0
2018-Jun-18 10:53N 47°18' W 002°05'0 0.0
2018-Jun-18 10:29N 47°18' W 002°05'0 0.0
2018-Jun-18 09:59N 47°18' W 002°05'0 0.0
2018-Jun-18 09:29N 47°18' W 002°05'0 0.0
2018-Jun-18 08:59N 47°18' W 002°05'0 0.0
2018-Jun-18 08:29N 47°18' W 002°05'0 0.0
2018-Jun-18 07:59N 47°18' W 002°05'0 0.0
2018-Jun-18 07:29N 47°18' W 002°05'0 0.0
2018-Jun-18 06:59N 47°18' W 002°05'0 0.0
2018-Jun-18 06:29N 47°18' W 002°05'0 0.0
2018-Jun-18 05:59N 47°18' W 002°05'0 0.0
2018-Jun-18 05:29N 47°18' W 002°05'0 0.0
2018-Jun-18 04:59N 47°18' W 002°05'0 0.0
2018-Jun-18 04:29N 47°18' W 002°05'0 0.0
2018-Jun-18 03:59N 47°18' W 002°05'0 0.0
2018-Jun-18 03:29N 47°18' W 002°05'0 0.0
2018-Jun-18 02:59N 47°18' W 002°05'0 0.0
2018-Jun-18 02:29N 47°18' W 002°05'0 0.0
2018-Jun-18 01:59N 47°18' W 002°05'0 0.0
2018-Jun-18 01:29N 47°18' W 002°05'0 0.0
2018-Jun-18 00:59N 47°18' W 002°05'0 0.0
2018-Jun-18 00:29N 47°18' W 002°05'0 0.0
2018-Jun-17 23:59N 47°18' W 002°05'0 0.0
2018-Jun-17 23:29N 47°18' W 002°05'0 0.0
2018-Jun-17 22:59N 47°18' W 002°05'0 0.0
2018-Jun-17 22:29N 47°18' W 002°05'0 0.0
2018-Jun-17 21:59N 47°18' W 002°05'0 0.0
2018-Jun-17 21:29N 47°18' W 002°05'0 0.0
2018-Jun-17 20:59N 47°18' W 002°05'0 0.0
2018-Jun-17 20:29N 47°18' W 002°05'0 0.0
2018-Jun-17 19:59N 47°18' W 002°05'0 0.0
2018-Jun-17 19:26N 47°18' W 002°05'0 0.0
2018-Jun-17 18:59N 47°18' W 002°05'0 0.0
2018-Jun-17 18:29N 47°18' W 002°05'0 0.0
2018-Jun-17 17:56N 47°18' W 002°05'0 0.0
2018-Jun-17 17:26N 47°18' W 002°05'0 1.1
2018-Jun-17 17:00N 47°18' W 002°06'3 6.6
2018-Jun-17 16:30N 47°17' W 002°10'611.9
2018-Jun-17 16:01N 47°13' W 002°17'611.6
2018-Jun-17 15:31N 47°08' W 002°21'4 7.3
2018-Jun-17 15:01N 47°08' W 002°26'1 2.0
2018-Jun-17 14:28N 47°08' W 002°27'0 0.0
2018-Jun-17 13:58N 47°08' W 002°27'0 0.0
2018-Jun-17 13:28N 47°08' W 002°27'0 0.0
2018-Jun-17 12:58N 47°08' W 002°27'0 0.3
2018-Jun-17 12:28N 47°08' W 002°28'0 0.1
2018-Jun-17 11:58N 47°08' W 002°28'0 0.0
2018-Jun-17 11:28N 47°08' W 002°28'0 0.1
2018-Jun-17 10:55N 47°08' W 002°28'0 0.0
2018-Jun-17 10:25N 47°08' W 002°28'0 0.0
2018-Jun-17 09:58N 47°08' W 002°28'0 0.0
2018-Jun-17 09:28N 47°08' W 002°28'0 0.1
2018-Jun-17 08:58N 47°08' W 002°28'0 0.1
2018-Jun-17 08:28N 47°08' W 002°28'0 0.1
2018-Jun-17 08:00N 47°08' W 002°28'3 4.0
2018-Jun-17 07:18N 47°05' W 002°26'2 7.6
2018-Jun-17 07:00N 47°03' W 002°29'611.3
2018-Jun-17 06:30N 47°01' W 002°36'5 8.8
2018-Jun-17 05:54N 46°60' W 002°44'810.6
2018-Jun-17 05:09N 47°02' W 002°55'213.0
2018-Jun-17 05:00N 47°02' W 002°57'713.6
2018-Jun-17 04:31N 47°04' W 003°07'814.9
2018-Jun-17 04:00N 47°05' W 003°18'714.8
2018-Jun-17 03:31N 47°08' W 003°28'714.8
2018-Jun-17 03:01N 47°12' W 003°37'714.6
2018-Jun-17 02:30N 47°17' W 003°46'714.7
2018-Jun-17 02:01N 47°21' W 003°55'714.4
2018-Jun-17 01:31N 47°25' W 004°04'714.5
2018-Jun-17 01:00N 47°28' W 004°13'714.4
2018-Jun-17 00:31N 47°32' W 004°22'714.3
2018-Jun-17 00:00N 47°36' W 004°31'714.4
2018-Jun-16 23:30N 47°40' W 004°40'714.5
2018-Jun-16 23:00N 47°44' W 004°49'715.2
2018-Jun-16 22:30N 47°48' W 004°58'815.7
2018-Jun-16 22:01N 47°53' W 005°07'915.9
2018-Jun-16 21:28N 47°59' W 005°16'715.7
2018-Jun-16 21:00N 48°05' W 005°24'815.6
2018-Jun-16 20:30N 48°10' W 005°32'915.2
2018-Jun-16 19:57N 48°16' W 005°41'3211.3
2018-Jun-16 17:08N 48°47' W 005°50'212.2
2018-Jun-16 16:59N 48°49' W 005°49'812.0
2018-Jun-16 16:17N 48°56' W 005°41'811.6
2018-Jun-16 15:37N 48°59' W 005°31'211.0
2018-Jun-16 15:27N 49°01' W 005°28'910.0
2018-Jun-16 14:33N 49°06' W 005°17'8213.5
2018-Jun-16 08:27N 49°47' W 003°28'511.6
2018-Jun-16 08:00N 49°49' W 003°21'711.7
2018-Jun-16 07:25N 49°52' W 003°11'512.3
2018-Jun-16 07:00N 49°55' W 003°04'612.9
2018-Jun-16 06:30N 49°58' W 002°55'713.6
2018-Jun-16 06:00N 50°00' W 002°45'714.5
2018-Jun-16 05:31N 50°02' W 002°35'915.7
2018-Jun-16 04:54N 50°05' W 002°21'4817.8
2018-Jun-16 02:13N 50°17' W 001°09'517.0
2018-Jun-16 01:57N 50°18' W 001°02'816.0
2018-Jun-16 01:27N 50°21' W 000°50'714.9
2018-Jun-16 00:58N 50°23' W 000°39'814.3
2018-Jun-16 00:23N 50°25' W 000°27'613.6
2018-Jun-15 23:56N 50°27' W 000°17'613.2
2018-Jun-15 23:30N 50°29' W 000°09'812.4
2018-Jun-15 22:53N 50°32' E 000°02'411.8
2018-Jun-15 22:30N 50°33' E 000°09'611.6
2018-Jun-15 22:01N 50°34' E 000°18'611.6
2018-Jun-15 21:31N 50°36' E 000°27'612.3
2018-Jun-15 21:01N 50°38' E 000°36'713.4
2018-Jun-15 20:30N 50°42' E 000°44'714.4
2018-Jun-15 20:00N 50°47' E 000°53'815.3
2018-Jun-15 19:30N 50°51' E 001°03'815.7
2018-Jun-15 19:00N 50°56' E 001°12'816.3
2018-Jun-15 18:30N 51°02' E 001°22'815.7
2018-Jun-15 18:00N 51°07' E 001°32'714.6
2018-Jun-15 17:30N 51°11' E 001°41'713.9
2018-Jun-15 17:01N 51°16' E 001°48'713.4
2018-Jun-15 16:31N 51°22' E 001°55'611.7
2018-Jun-15 16:01N 51°25' E 002°02'714.3
2018-Jun-15 15:31N 51°22' E 002°12'612.5
2018-Jun-15 15:00N 51°21' E 002°23'1111.0
2018-Jun-15 14:00N 51°24' E 002°39'1 1.1
2018-Jun-15 13:28N 51°25' E 002°40'0 0.0
2018-Jun-15 12:55N 51°25' E 002°40'0 0.0
2018-Jun-15 12:28N 51°25' E 002°40'0 0.0
2018-Jun-15 11:58N 51°25' E 002°40'0 0.2
2018-Jun-15 11:28N 51°25' E 002°40'0 0.1
2018-Jun-15 10:58N 51°25' E 002°40'0 0.0
2018-Jun-15 10:28N 51°25' E 002°40'0 0.0
2018-Jun-15 09:58N 51°25' E 002°40'0 0.0
2018-Jun-15 09:28N 51°25' E 002°40'0 0.0
2018-Jun-15 08:58N 51°25' E 002°40'0 0.0
2018-Jun-15 08:28N 51°25' E 002°40'0 0.0
2018-Jun-15 07:55N 51°25' E 002°40'0 0.0
2018-Jun-15 07:28N 51°25' E 002°40'0 0.1
2018-Jun-15 06:58N 51°25' E 002°40'0 0.1
2018-Jun-15 06:28N 51°25' E 002°40'0 0.1
2018-Jun-15 05:58N 51°25' E 002°40'0 0.1
2018-Jun-15 05:25N 51°25' E 002°40'0 0.1
2018-Jun-15 04:58N 51°25' E 002°40'0 0.0
2018-Jun-15 04:28N 51°25' E 002°40'0 0.0
2018-Jun-15 03:58N 51°25' E 002°40'0 0.0
2018-Jun-15 03:19N 51°25' E 002°40'0 0.0
2018-Jun-15 02:58N 51°25' E 002°40'0 0.0
2018-Jun-15 02:28N 51°25' E 002°40'0 0.0
2018-Jun-15 01:58N 51°25' E 002°40'0 0.0
2018-Jun-15 01:28N 51°25' E 002°40'0 0.0
2018-Jun-15 00:58N 51°25' E 002°40'  
Track history (hours):
 
Tides and Currents Weather Stations Pressure Air Temp Water Temp Dewpoint Dewpoint Depression Visibility Wind Speed Wind Dir Waves Ship Positions

Hafnia Mikala

Last reported at 2018-Jun-25 00:26 UTC. Time now 2018-Jun-25 02:00 UTC.
Position N 37°19' E 004°17'.

Length 183 m; draft 11.4 m.

Type: Tanker. MMSI: 249836000.

Date/timePositionNaut miles runAvg speedWind from/ knotsBaromVisibWave heightAir tempDewpointWater temp
2018-Jun-25 00:26N 37°19' E 004°17'2412.6
2018-Jun-24 22:29N 37°16' E 003°47'712.1
2018-Jun-24 21:54N 37°16' E 003°38'512.0
2018-Jun-24 21:30N 37°15' E 003°32'612.1
2018-Jun-24 21:00N 37°14' E 003°24'612.1
2018-Jun-24 20:30N 37°13' E 003°17'612.2
2018-Jun-24 20:00N 37°12' E 003°09'612.1
2018-Jun-24 19:30N 37°11' E 003°02'612.6
2018-Jun-24 19:00N 37°09' E 002°54'612.9
2018-Jun-24 18:30N 37°07' E 002°47'612.9
2018-Jun-24 18:00N 37°06' E 002°39'612.8
2018-Jun-24 17:30N 37°05' E 002°31'612.9
2018-Jun-24 17:00N 37°04' E 002°23'613.0
2018-Jun-24 16:30N 37°03' E 002°15'713.1
2018-Jun-24 16:00N 37°02' E 002°07'713.4
2018-Jun-24 15:30N 37°00' E 001°59'713.6
2018-Jun-24 15:00N 36°59' E 001°50'713.7
2018-Jun-24 14:29N 36°57' E 001°41'613.5
2018-Jun-24 14:00N 36°56' E 001°34'1613.1
2018-Jun-24 12:48N 36°52' E 001°15'713.1
2018-Jun-24 12:18N 36°50' E 001°06'7113.1
2018-Jun-24 06:52N 36°29' W 000°18'1913.5
2018-Jun-24 05:29N 36°23' W 000°40'3711.0
2018-Jun-24 02:05N 36°13' W 001°25'113.3
2018-Jun-24 01:59N 36°13' W 001°27'913.4
2018-Jun-24 01:18N 36°13' W 001°38'613.6
2018-Jun-24 00:51N 36°12' W 001°46'35413.6
2018-Jun-22 22:56N 36°17' W 009°04'713.5
2018-Jun-22 22:23N 36°18' W 009°13'513.7
2018-Jun-22 21:59N 36°19' W 009°20'189 8.9
2018-Jun-22 00:42N 38°56' W 011°34'313.4
2018-Jun-22 00:29N 38°58' W 011°33'713.4
2018-Jun-21 23:57N 39°06' W 011°31'613.1
2018-Jun-21 23:30N 39°11' W 011°29'52112.4
2018-Jun-20 05:18N 46°11' W 004°28'713.5
2018-Jun-20 04:49N 46°15' W 004°20'1013.0
2018-Jun-20 04:02N 46°20' W 004°08'213.0
2018-Jun-20 03:53N 46°21' W 004°06'613.3
2018-Jun-20 03:29N 46°24' W 003°59'913.0
2018-Jun-20 02:47N 46°29' W 003°48'613.3
2018-Jun-20 02:21N 46°33' W 003°41'513.6
2018-Jun-20 02:00N 46°35' W 003°36'1113.5
2018-Jun-20 01:11N 46°41' W 003°23'413.8
2018-Jun-20 00:54N 46°44' W 003°18'513.8
2018-Jun-20 00:30N 46°47' W 003°11'713.8
2018-Jun-19 23:59N 46°50' W 003°02'714.0
2018-Jun-19 23:29N 46°54' W 002°54'713.5
2018-Jun-19 23:00N 46°58' W 002°46'713.1
2018-Jun-19 22:30N 47°01' W 002°38'612.1
2018-Jun-19 22:00N 47°04' W 002°30'5 9.8
2018-Jun-19 21:30N 47°06' W 002°23'5 9.6
2018-Jun-19 21:00N 47°10' W 002°19'611.7
2018-Jun-19 20:30N 47°15' W 002°14'5 9.8
2018-Jun-19 20:00N 47°18' W 002°09'2 3.4
2018-Jun-19 19:19N 47°18' W 002°05'0 0.0
2018-Jun-19 18:52N 47°18' W 002°05'0 0.0
2018-Jun-19 18:19N 47°18' W 002°05'0 0.0
2018-Jun-19 17:58N 47°18' W 002°05'0 0.0
2018-Jun-19 16:22N 47°18' W 002°05'0 0.0
2018-Jun-19 15:55N 47°18' W 002°05'0 0.0
2018-Jun-19 14:25N 47°18' W 002°05'0 0.0
2018-Jun-19 12:55N 47°18' W 002°05'0 0.0
2018-Jun-19 12:28N 47°18' W 002°05'0 0.0
2018-Jun-19 11:55N 47°18' W 002°05'0 0.0
2018-Jun-19 11:25N 47°18' W 002°05'0 0.0
2018-Jun-19 10:58N 47°18' W 002°05'0 0.0
2018-Jun-19 10:28N 47°18' W 002°05'0 0.0
2018-Jun-19 09:55N 47°18' W 002°05'0 0.0
2018-Jun-19 09:16N 47°18' W 002°05'0 0.0
2018-Jun-19 08:13N 47°18' W 002°05'0 0.0
2018-Jun-19 08:00N 47°18' W 002°05'0 0.0
2018-Jun-19 07:24N 47°18' W 002°05'0 0.0
2018-Jun-19 06:51N 47°18' W 002°05'0 0.0
2018-Jun-19 06:24N 47°18' W 002°05'0 0.0
2018-Jun-19 06:00N 47°18' W 002°05'0 0.0
2018-Jun-19 05:30N 47°18' W 002°05'0 0.0
2018-Jun-19 05:00N 47°18' W 002°05'0 0.0
2018-Jun-19 04:24N 47°18' W 002°05'0 0.0
2018-Jun-19 04:00N 47°18' W 002°05'0 0.0
2018-Jun-19 03:30N 47°18' W 002°05'0 0.0
2018-Jun-19 03:00N 47°18' W 002°05'0 0.0
2018-Jun-19 02:30N 47°18' W 002°05'0 0.0
2018-Jun-19 01:48N 47°18' W 002°05'0 0.0
2018-Jun-19 01:30N 47°18' W 002°05'0 0.0
2018-Jun-19 01:00N 47°18' W 002°05'0 0.0
2018-Jun-18 23:21N 47°18' W 002°05'0 0.0
2018-Jun-18 23:00N 47°18' W 002°05'0 0.0
2018-Jun-18 22:30N 47°18' W 002°05'0 0.0
2018-Jun-18 21:57N 47°18' W 002°05'0 0.0
2018-Jun-18 21:30N 47°18' W 002°05'0 0.0
2018-Jun-18 21:00N 47°18' W 002°05'0 0.0
2018-Jun-18 20:30N 47°18' W 002°05'0 0.0
2018-Jun-18 20:00N 47°18' W 002°05'0 0.0
2018-Jun-18 19:24N 47°18' W 002°05'0 0.0
2018-Jun-18 18:54N 47°18' W 002°05'0 0.0
2018-Jun-18 18:30N 47°18' W 002°05'0 0.0
2018-Jun-18 18:00N 47°18' W 002°05'0 0.0
2018-Jun-18 17:30N 47°18' W 002°05'0 0.0
2018-Jun-18 17:00N 47°18' W 002°05'0 0.0
2018-Jun-18 16:30N 47°18' W 002°05'0 0.0
2018-Jun-18 16:00N 47°18' W 002°05'0 0.0
2018-Jun-18 15:15N 47°18' W 002°05'0 0.0
2018-Jun-18 15:00N 47°18' W 002°05'0 0.0
2018-Jun-18 14:24N 47°18' W 002°05'0 0.0
2018-Jun-18 13:30N 47°18' W 002°05'0 0.0
2018-Jun-18 12:54N 47°18' W 002°05'0 0.0
2018-Jun-18 12:30N 47°18' W 002°05'0 0.0
2018-Jun-18 12:00N 47°18' W 002°05'0 0.0
2018-Jun-18 11:15N 47°18' W 002°05'0 0.0
2018-Jun-18 10:53N 47°18' W 002°05'0 0.0
2018-Jun-18 10:29N 47°18' W 002°05'0 0.0
2018-Jun-18 09:59N 47°18' W 002°05'0 0.0
2018-Jun-18 09:29N 47°18' W 002°05'0 0.0
2018-Jun-18 08:59N 47°18' W 002°05'0 0.0
2018-Jun-18 08:29N 47°18' W 002°05'0 0.0
2018-Jun-18 07:59N 47°18' W 002°05'0 0.0
2018-Jun-18 07:29N 47°18' W 002°05'0 0.0
2018-Jun-18 06:59N 47°18' W 002°05'0 0.0
2018-Jun-18 06:29N 47°18' W 002°05'0 0.0
2018-Jun-18 05:59N 47°18' W 002°05'0 0.0
2018-Jun-18 05:29N 47°18' W 002°05'0 0.0
2018-Jun-18 04:59N 47°18' W 002°05'0 0.0
2018-Jun-18 04:29N 47°18' W 002°05'0 0.0
2018-Jun-18 03:59N 47°18' W 002°05'0 0.0
2018-Jun-18 03:29N 47°18' W 002°05'0 0.0
2018-Jun-18 02:59N 47°18' W 002°05'0 0.0
2018-Jun-18 02:29N 47°18' W 002°05'0 0.0
2018-Jun-18 01:59N 47°18' W 002°05'0 0.0
2018-Jun-18 01:29N 47°18' W 002°05'0 0.0
2018-Jun-18 00:59N 47°18' W 002°05'0 0.0
2018-Jun-18 00:29N 47°18' W 002°05'0 0.0
2018-Jun-17 23:59N 47°18' W 002°05'0 0.0
2018-Jun-17 23:29N 47°18' W 002°05'0 0.0
2018-Jun-17 22:59N 47°18' W 002°05'0 0.0
2018-Jun-17 22:29N 47°18' W 002°05'0 0.0
2018-Jun-17 21:59N 47°18' W 002°05'0 0.0
2018-Jun-17 21:29N 47°18' W 002°05'0 0.0
2018-Jun-17 20:59N 47°18' W 002°05'0 0.0
2018-Jun-17 20:29N 47°18' W 002°05'0 0.0
2018-Jun-17 19:59N 47°18' W 002°05'0 0.0
2018-Jun-17 19:26N 47°18' W 002°05'0 0.0
2018-Jun-17 18:59N 47°18' W 002°05'0 0.0
2018-Jun-17 18:29N 47°18' W 002°05'0 0.0
2018-Jun-17 17:56N 47°18' W 002°05'0 0.0
2018-Jun-17 17:26N 47°18' W 002°05'0 1.1
2018-Jun-17 17:00N 47°18' W 002°06'3 6.6
2018-Jun-17 16:30N 47°17' W 002°10'611.9
2018-Jun-17 16:01N 47°13' W 002°17'611.6
2018-Jun-17 15:31N 47°08' W 002°21'4 7.3
2018-Jun-17 15:01N 47°08' W 002°26'1 2.0
2018-Jun-17 14:28N 47°08' W 002°27'0 0.0
2018-Jun-17 13:58N 47°08' W 002°27'0 0.0
2018-Jun-17 13:28N 47°08' W 002°27'0 0.0
2018-Jun-17 12:58N 47°08' W 002°27'0 0.3
2018-Jun-17 12:28N 47°08' W 002°28'0 0.1
2018-Jun-17 11:58N 47°08' W 002°28'0 0.0
2018-Jun-17 11:28N 47°08' W 002°28'0 0.1
2018-Jun-17 10:55N 47°08' W 002°28'0 0.0
2018-Jun-17 10:25N 47°08' W 002°28'0 0.0
2018-Jun-17 09:58N 47°08' W 002°28'0 0.0
2018-Jun-17 09:28N 47°08' W 002°28'0 0.1
2018-Jun-17 08:58N 47°08' W 002°28'0 0.1
2018-Jun-17 08:28N 47°08' W 002°28'0 0.1
2018-Jun-17 08:00N 47°08' W 002°28'3 4.0
2018-Jun-17 07:18N 47°05' W 002°26'2 7.6
2018-Jun-17 07:00N 47°03' W 002°29'611.3
2018-Jun-17 06:30N 47°01' W 002°36'5 8.8
2018-Jun-17 05:54N 46°60' W 002°44'810.6
2018-Jun-17 05:09N 47°02' W 002°55'213.0
2018-Jun-17 05:00N 47°02' W 002°57'713.6
2018-Jun-17 04:31N 47°04' W 003°07'814.9
2018-Jun-17 04:00N 47°05' W 003°18'714.8
2018-Jun-17 03:31N 47°08' W 003°28'714.8
2018-Jun-17 03:01N 47°12' W 003°37'714.6
2018-Jun-17 02:30N 47°17' W 003°46'714.7
2018-Jun-17 02:01N 47°21' W 003°55'714.4
2018-Jun-17 01:31N 47°25' W 004°04'714.5
2018-Jun-17 01:00N 47°28' W 004°13'714.4
2018-Jun-17 00:31N 47°32' W 004°22'714.3
2018-Jun-17 00:00N 47°36' W 004°31'714.4
2018-Jun-16 23:30N 47°40' W 004°40'714.5
2018-Jun-16 23:00N 47°44' W 004°49'715.2
2018-Jun-16 22:30N 47°48' W 004°58'815.7
2018-Jun-16 22:01N 47°53' W 005°07'915.9
2018-Jun-16 21:28N 47°59' W 005°16'715.7
2018-Jun-16 21:00N 48°05' W 005°24'815.6
2018-Jun-16 20:30N 48°10' W 005°32'915.2
2018-Jun-16 19:57N 48°16' W 005°41'3211.3
2018-Jun-16 17:08N 48°47' W 005°50'212.2
2018-Jun-16 16:59N 48°49' W 005°49'812.0
2018-Jun-16 16:17N 48°56' W 005°41'811.6
2018-Jun-16 15:37N 48°59' W 005°31'211.0
2018-Jun-16 15:27N 49°01' W 005°28'910.0
2018-Jun-16 14:33N 49°06' W 005°17'8213.5
2018-Jun-16 08:27N 49°47' W 003°28'511.6
2018-Jun-16 08:00N 49°49' W 003°21'711.7
2018-Jun-16 07:25N 49°52' W 003°11'512.3
2018-Jun-16 07:00N 49°55' W 003°04'612.9
2018-Jun-16 06:30N 49°58' W 002°55'713.6
2018-Jun-16 06:00N 50°00' W 002°45'714.5
2018-Jun-16 05:31N 50°02' W 002°35'915.7
2018-Jun-16 04:54N 50°05' W 002°21'4817.8
2018-Jun-16 02:13N 50°17' W 001°09'517.0
2018-Jun-16 01:57N 50°18' W 001°02'816.0
2018-Jun-16 01:27N 50°21' W 000°50'714.9
2018-Jun-16 00:58N 50°23' W 000°39'814.3
2018-Jun-16 00:23N 50°25' W 000°27'613.6
2018-Jun-15 23:56N 50°27' W 000°17'613.2
2018-Jun-15 23:30N 50°29' W 000°09'812.4
2018-Jun-15 22:53N 50°32' E 000°02'411.8
2018-Jun-15 22:30N 50°33' E 000°09'611.6
2018-Jun-15 22:01N 50°34' E 000°18'611.6
2018-Jun-15 21:31N 50°36' E 000°27'612.3
2018-Jun-15 21:01N 50°38' E 000°36'713.4
2018-Jun-15 20:30N 50°42' E 000°44'714.4
2018-Jun-15 20:00N 50°47' E 000°53'815.3
2018-Jun-15 19:30N 50°51' E 001°03'815.7
2018-Jun-15 19:00N 50°56' E 001°12'816.3
2018-Jun-15 18:30N 51°02' E 001°22'815.7
2018-Jun-15 18:00N 51°07' E 001°32'714.6
2018-Jun-15 17:30N 51°11' E 001°41'713.9
2018-Jun-15 17:01N 51°16' E 001°48'713.4
2018-Jun-15 16:31N 51°22' E 001°55'611.7
2018-Jun-15 16:01N 51°25' E 002°02'714.3
2018-Jun-15 15:31N 51°22' E 002°12'612.5
2018-Jun-15 15:00N 51°21' E 002°23'1111.0
2018-Jun-15 14:00N 51°24' E 002°39'1 1.1
2018-Jun-15 13:28N 51°25' E 002°40'0 0.0
2018-Jun-15 12:55N 51°25' E 002°40'0 0.0
2018-Jun-15 12:28N 51°25' E 002°40'0 0.0
2018-Jun-15 11:58N 51°25' E 002°40'0 0.2
2018-Jun-15 11:28N 51°25' E 002°40'0 0.1
2018-Jun-15 10:58N 51°25' E 002°40'0 0.0
2018-Jun-15 10:28N 51°25' E 002°40'0 0.0
2018-Jun-15 09:58N 51°25' E 002°40'0 0.0
2018-Jun-15 09:28N 51°25' E 002°40'0 0.0
2018-Jun-15 08:58N 51°25' E 002°40'0 0.0
2018-Jun-15 08:28N 51°25' E 002°40'0 0.0
2018-Jun-15 07:55N 51°25' E 002°40'0 0.0
2018-Jun-15 07:28N 51°25' E 002°40'0 0.1
2018-Jun-15 06:58N 51°25' E 002°40'0 0.1
2018-Jun-15 06:28N 51°25' E 002°40'0 0.1
2018-Jun-15 05:58N 51°25' E 002°40'0 0.1
2018-Jun-15 05:25N 51°25' E 002°40'0 0.1
2018-Jun-15 04:58N 51°25' E 002°40'0 0.0
2018-Jun-15 04:28N 51°25' E 002°40'0 0.0
2018-Jun-15 03:58N 51°25' E 002°40'0 0.0
2018-Jun-15 03:19N 51°25' E 002°40'0 0.0
2018-Jun-15 02:58N 51°25' E 002°40'0 0.0
2018-Jun-15 02:28N 51°25' E 002°40'0 0.0
2018-Jun-15 01:58N 51°25' E 002°40'0 0.0
2018-Jun-15 01:28N 51°25' E 002°40'0 0.0
2018-Jun-15 00:58N 51°25' E 002°40'  

Dump ship's entire track history